Glassville, Canada
Current Conditions -  °F | °C
As of 6:53 PM on Monday 24 Nov 2014 (Local Time) from KHUL Reporting Station
Overcast Overcast  
Wind Chill: 55°   Ceiling: 400
Heat Index: 55°   Visibility: 9mi
Dew Point: 54°   Wind: 12mph
Humidity: 96%   Direction: 190°S
Pressure: 29.49"   Gusts: 21mph
Location:  46.48°N, 67.42°W
Report Text: KHUL 242253Z AUTO 19010G18KT 9SM OVC004 13/12 A2949 RMK AO2 SLP990 T01280122
Loading
Personal Weather Stations






























Interactive Weather Map New forecast layout! Learn more

10-Day Weather Forecast

Advertisements
Track Severe Weather on mobile